Hlavní strana
METAR-TAF:

METAR-TAF

Letiště :

Oral, Kazachstán

zeměpisná šířka: 51-15N, zeměpisná délka: 051-17E, výška: 36 m

Aktuální stav počasí

Zpráva byla vytvořena před 19 minutami, v 16:00 UTC
Východní vítr 8 kt
Teplota 17°C
Vlhkost vzduchu 36%
Tlak 1010 hPa
Viditelnost 10 km a více
Oblačno až skoro zataženo ve výšce 4000 ft

METAR: UARR 241600Z 09004MPS 9999 BKN040 17/02 Q1010 R04/CLRD70 NOSIG RMK QFE754/1005

Čas: 21:19 (16:19 UTC)

Předpověď počasí

Zpráva byla vytvořena před 2 hodinami a 19 minutami, v 14:00 UTC
Předpověď platná od 24 v 15 UTC do 24 v 24 UTC
Jihovýchodní vítr 19 kt s nárazy do 31 kt
Viditelnost 10 km a více
Oblačno až skoro zataženo ve výšce 3300 ft, Cumulonimbus.
Dočasný
od 24 v 15 UTC do 24 v 21 UTC
Východní vítr 12 kt s nárazy do 25 kt
slabé dešťové přeháňky

TAF: UARR 241400Z 2415/2424 13010G16MPS 9999 BKN033CB TEMPO 2415/2421 10006G13MPS -SHRA

Stav a předpovědi počasí z více než 4 000 letišť (zprávy METAR a TAF).

Červené a žluté tečky na mapě představují dostupné meteorologické stanice.

Když kurzor umístíte na tečku, zobrazí se název stanice.

Pak kliknutím zobrazíte stav a předpověď počasí.

Chcete-li změnit mapu, kliknutím na zelené tlačítko se znaménkem +mapu přiblížíte, kliknutím na zelené tlačítko se znaménkem – mapu oddálíte a kliknutím na zelené šipky přejdete na sousední mapy.


METAR-TAF: